Time;durP1;ratioP1;P1;durP2;ratioP2;P2;SDS_P1;SDS_P2;PMS_P1;PMS_P2;Temp;Humidity;BMP_temperature;BMP_pressure;BME280_temperature;BME280_humidity;BME280_pressure;Samples;Min_cycle;Max_cycle;Signal;HPM_P1;HPM_P2
2022/02/12 00:00:59;;;;;;;10.27;7.60;;;;;;;1.98;81.61;96468.64;1716529;83;21049;-78
2022/02/12 00:03:26;;;;;;;10.80;6.93;;;;;;;2.00;81.12;96479.98;1716251;83;21045;-78
2022/02/12 00:05:52;;;;;;;12.93;7.03;;;;;;;1.99;80.91;96479.11;1716485;83;21048;-78
2022/02/12 00:08:19;;;;;;;12.90;7.30;;;;;;;1.98;80.45;96486.43;1720641;83;21001;-78
2022/02/12 00:10:46;;;;;;;10.90;6.43;;;;;;;1.95;80.55;96479.84;1721469;82;21377;-78
2022/02/12 00:13:12;;;;;;;9.73;6.20;;;;;;;1.94;79.96;96479.36;1721891;83;21013;-77
2022/02/12 00:15:40;;;;;;;9.87;6.00;;;;;;;1.91;79.94;96481.88;1721425;83;21079;-77
2022/02/12 00:18:08;;;;;;;11.43;7.10;;;;;;;1.84;80.08;96487.73;1721771;83;21068;-77
2022/02/12 00:20:35;;;;;;;10.43;6.40;;;;;;;1.81;79.94;96494.16;1721779;83;21534;-77
2022/02/12 00:23:02;;;;;;;9.80;6.57;;;;;;;1.83;79.10;96505.50;1721896;82;21048;-77
2022/02/12 00:25:28;;;;;;;8.50;5.33;;;;;;;1.82;78.72;96498.55;1721854;83;21064;-77
2022/02/12 00:27:55;;;;;;;9.03;6.00;;;;;;;1.75;78.46;96500.50;1721790;83;21001;-77
2022/02/12 00:30:21;;;;;;;7.23;4.93;;;;;;;1.69;77.68;96503.80;1721799;82;20993;-77
2022/02/12 00:32:48;;;;;;;10.10;5.23;;;;;;;1.63;76.56;96508.38;1721987;82;21000;-79
2022/02/12 00:35:15;;;;;;;6.57;3.87;;;;;;;1.61;76.26;96513.95;1721628;82;21127;-79
2022/02/12 00:37:43;;;;;;;8.47;5.07;;;;;;;1.54;76.00;96513.71;1721813;83;21009;-79
2022/02/12 00:40:11;;;;;;;7.57;4.73;;;;;;;1.50;76.26;96519.25;1721610;82;21546;-78
2022/02/12 00:42:38;;;;;;;7.60;4.80;;;;;;;1.47;75.69;96514.84;1722358;83;21490;-78
2022/02/12 00:45:07;;;;;;;10.57;5.63;;;;;;;1.45;75.87;96524.72;1721281;82;21515;-78
2022/02/12 00:47:34;;;;;;;10.00;5.80;;;;;;;1.38;76.21;96525.36;1721749;83;21027;-77
2022/02/12 00:50:03;;;;;;;8.87;5.70;;;;;;;1.33;76.46;96542.11;1721622;82;21032;-79
2022/02/12 00:52:32;;;;;;;7.40;4.77;;;;;;;1.32;76.38;96542.95;1721622;83;21016;-79
2022/02/12 00:54:59;;;;;;;7.57;4.90;;;;;;;1.27;76.77;96551.91;1721630;83;21542;-80
2022/02/12 00:57:26;;;;;;;7.90;4.30;;;;;;;1.21;76.69;96553.41;1721949;83;21330;-79
2022/02/12 00:59:53;;;;;;;6.67;3.93;;;;;;;1.20;75.88;96563.35;1721738;83;21016;-79
2022/02/12 01:02:19;;;;;;;6.53;3.60;;;;;;;1.20;75.74;96568.12;1721826;83;21025;-79
2022/02/12 01:04:45;;;;;;;4.57;2.73;;;;;;;1.21;75.36;96570.30;1721745;83;21049;-80
2022/02/12 01:07:12;;;;;;;4.27;3.20;;;;;;;1.21;74.56;96572.91;1720932;83;21048;-79
2022/02/12 01:09:39;;;;;;;7.13;3.60;;;;;;;1.23;73.83;96577.32;1716434;84;21025;-79
2022/02/12 01:12:08;;;;;;;5.03;3.47;;;;;;;1.22;73.99;96575.56;1716326;83;21001;-79
2022/02/12 01:14:34;;;;;;;6.40;3.67;;;;;;;1.22;74.31;96582.06;1716243;84;20986;-79
2022/02/12 01:17:01;;;;;;;4.80;2.73;;;;;;;1.21;74.62;96580.70;1716461;84;21045;-79
2022/02/12 01:19:28;;;;;;;4.50;3.30;;;;;;;1.14;76.04;96590.03;1716307;83;21041;-79
2022/02/12 01:21:55;;;;;;;3.70;2.60;;;;;;;1.09;76.14;96590.30;1716685;84;20978;-79
2022/02/12 01:24:21;;;;;;;2.80;1.90;;;;;;;1.06;75.98;96588.90;1716440;83;21516;-80
2022/02/12 01:26:49;;;;;;;2.77;1.90;;;;;;;1.03;74.65;96587.08;1716155;83;21033;-80
2022/02/12 01:29:15;;;;;;;2.90;1.60;;;;;;;0.97;75.57;96589.88;1716346;83;21025;-78
2022/02/12 01:31:42;;;;;;;3.67;1.77;;;;;;;0.91;75.24;96584.45;1716366;83;21037;-80
2022/02/12 01:34:08;;;;;;;3.40;2.20;;;;;;;0.84;74.62;96589.45;1716257;83;21064;-80
2022/02/12 01:36:35;;;;;;;2.97;1.70;;;;;;;0.80;75.82;96583.66;1716300;84;21040;-79
2022/02/12 01:39:04;;;;;;;3.17;1.97;;;;;;;0.79;76.02;96591.00;1686021;84;23667;-79
2022/02/12 01:41:30;;;;;;;2.83;1.80;;;;;;;0.67;77.09;96591.86;1716166;84;21483;-79
2022/02/12 01:44:09;;;;;;;3.00;2.00;;;;;;;0.63;77.17;96601.27;1716618;83;21009;-80
2022/02/12 01:46:37;;;;;;;2.10;1.60;;;;;;;0.67;77.81;96603.55;1716313;83;21490;-79
2022/02/12 01:49:04;;;;;;;2.60;1.60;;;;;;;0.59;77.16;96600.68;1716491;83;21010;-79
2022/02/12 01:51:32;;;;;;;3.23;1.80;;;;;;;0.58;76.66;96604.13;1716078;84;21029;-79
2022/02/12 01:53:59;;;;;;;3.20;1.50;;;;;;;0.59;75.84;96607.17;1716085;83;21498;-78
2022/02/12 01:56:25;;;;;;;3.40;2.17;;;;;;;0.57;75.12;96611.84;1716326;83;21029;-78
2022/02/12 01:58:52;;;;;;;3.47;1.70;;;;;;;0.57;75.10;96622.23;1716327;83;20985;-78
2022/02/12 02:01:18;;;;;;;2.90;1.80;;;;;;;0.57;75.12;96627.42;1715947;83;21029;-78
2022/02/12 02:03:45;;;;;;;2.63;1.60;;;;;;;0.56;75.02;96631.74;1716111;84;21132;-78
2022/02/12 02:06:12;;;;;;;2.57;1.57;;;;;;;0.54;75.65;96636.41;1716327;83;21028;-78
2022/02/12 02:08:40;;;;;;;2.63;1.83;;;;;;;0.54;74.57;96633.81;1719822;82;21510;-79
2022/02/12 02:11:08;;;;;;;2.93;1.60;;;;;;;0.51;75.81;96639.78;1721817;83;20976;-79
2022/02/12 02:13:35;;;;;;;6.00;1.57;;;;;;;0.46;76.49;96642.62;1721718;83;21060;-79
2022/02/12 02:16:02;;;;;;;1.60;1.07;;;;;;;0.42;76.96;96645.50;1721149;83;21023;-79
2022/02/12 02:18:28;;;;;;;1.57;1.17;;;;;;;0.39;76.12;96644.09;1721888;83;21041;-79
2022/02/12 02:20:54;;;;;;;2.20;1.10;;;;;;;0.36;76.92;96653.48;1721787;83;21467;-78
2022/02/12 02:23:21;;;;;;;2.40;1.37;;;;;;;0.33;75.63;96655.55;1721958;82;21045;-79
2022/02/12 02:25:47;;;;;;;1.90;1.37;;;;;;;0.31;76.51;96666.29;1721757;83;21578;-79
2022/02/12 02:28:14;;;;;;;1.70;1.40;;;;;;;0.32;74.50;96666.75;1721567;83;21080;-79
2022/02/12 02:30:42;;;;;;;1.30;1.13;;;;;;;0.34;74.64;96661.20;1721670;83;20976;-79
2022/02/12 02:33:10;;;;;;;1.60;1.17;;;;;;;0.39;73.01;96661.39;1721688;83;21534;-79
2022/02/12 02:35:37;;;;;;;2.30;1.33;;;;;;;0.46;73.96;96668.58;1721739;83;20997;-79
2022/02/12 02:38:09;;;;;;;1.60;1.33;;;;;;;0.47;73.56;96668.16;1721693;83;21021;-79
2022/02/12 02:40:36;;;;;;;2.07;1.33;;;;;;;0.52;72.54;96672.70;1693458;83;21060;-79
2022/02/12 02:43:04;;;;;;;3.10;1.43;;;;;;;0.53;72.91;96684.87;1721593;82;21095;-79
2022/02/12 02:45:31;;;;;;;1.90;1.10;;;;;;;0.51;72.64;96680.45;1721641;83;21041;-79
2022/02/12 02:48:00;;;;;;;1.67;1.27;;;;;;;0.52;72.35;96688.27;1721673;83;21017;-79
2022/02/12 02:56:01;;;;;;;1.90;1.17;;;;;;;0.40;71.88;96690.02;1721833;83;21064;-79
2022/02/12 02:58:37;;;;;;;1.57;1.00;;;;;;;0.36;70.92;96689.83;1721713;83;21025;-79
2022/02/12 03:01:08;;;;;;;1.87;1.20;;;;;;;0.35;71.63;96699.34;1721684;83;20977;-80
2022/02/12 03:03:40;;;;;;;3.40;1.23;;;;;;;0.35;71.46;96700.64;1721980;82;21562;-80
2022/02/12 03:06:08;;;;;;;2.47;1.30;;;;;;;0.32;71.26;96700.49;1721705;83;21044;-79
2022/02/12 03:08:35;;;;;;;1.90;1.13;;;;;;;0.30;70.84;96711.64;1719030;83;21040;-80
2022/02/12 03:11:03;;;;;;;1.97;1.33;;;;;;;0.27;70.76;96715.01;1716416;84;21009;-80
2022/02/12 03:13:29;;;;;;;1.63;1.00;;;;;;;0.26;71.30;96717.56;1716452;83;21068;-80
2022/02/12 03:15:57;;;;;;;2.70;1.37;;;;;;;0.19;71.41;96719.91;1716526;84;21010;-79
2022/02/12 03:18:25;;;;;;;1.47;0.73;;;;;;;0.23;71.67;96731.70;1716306;83;21021;-80
2022/02/12 03:20:52;;;;;;;2.80;1.23;;;;;;;0.25;71.10;96733.94;1716538;84;21029;-80
2022/02/12 03:23:19;;;;;;;1.70;1.17;;;;;;;0.30;71.20;96728.09;1716533;83;21514;-80
2022/02/12 03:25:45;;;;;;;0.60;0.60;;;;;;;0.30;71.65;96742.80;1716242;84;21031;-80
2022/02/12 03:28:13;;;;;;;1.60;1.13;;;;;;;0.18;70.07;96745.81;1716623;84;21061;-80
2022/02/12 03:30:45;;;;;;;1.97;1.40;;;;;;;0.27;70.68;96746.16;1716310;84;21032;-80
2022/02/12 03:33:13;;;;;;;2.13;1.40;;;;;;;0.30;69.88;96753.18;1716737;83;20997;-80
2022/02/12 03:35:41;;;;;;;2.33;1.40;;;;;;;0.27;70.06;96757.84;1716489;83;21644;-79
2022/02/12 03:38:16;;;;;;;2.17;1.50;;;;;;;0.19;70.31;96752.34;1716629;83;21052;-79
2022/02/12 03:40:46;;;;;;;1.93;1.27;;;;;;;0.15;71.11;96758.26;1715519;84;21021;-80
2022/02/12 03:43:14;;;;;;;1.80;1.53;;;;;;;0.06;71.86;96768.25;1716534;84;21072;-79
2022/02/12 03:45:42;;;;;;;1.77;1.40;;;;;;;-0.09;72.05;96772.81;1716266;83;21541;-79
2022/02/12 03:48:10;;;;;;;2.07;1.30;;;;;;;-0.08;72.11;96776.75;1715939;83;21090;-79
2022/02/12 03:50:38;;;;;;;3.23;1.40;;;;;;;-0.09;71.79;96777.59;1716451;84;21009;-79
2022/02/12 03:53:07;;;;;;;2.60;1.70;;;;;;;-0.13;71.69;96774.38;1716814;83;21037;-80
2022/02/12 03:55:39;;;;;;;2.03;1.60;;;;;;;-0.09;71.89;96784.49;1716488;83;21471;-79
2022/02/12 03:58:09;;;;;;;4.90;2.00;;;;;;;-0.09;72.17;96790.98;1716428;84;21024;-79
2022/02/12 04:00:37;;;;;;;3.00;1.73;;;;;;;-0.12;73.13;96799.94;1716282;83;21498;-79
2022/02/12 04:03:04;;;;;;;3.90;2.30;;;;;;;-0.14;73.59;96798.56;1716424;84;21064;-79
2022/02/12 04:05:32;;;;;;;4.80;1.93;;;;;;;-0.22;74.15;96811.21;1716777;83;20985;-79
2022/02/12 04:07:59;;;;;;;3.50;2.03;;;;;;;-0.24;73.85;96815.44;1716260;83;21357;-79
2022/02/12 04:10:27;;;;;;;2.80;1.97;;;;;;;-0.23;74.58;96821.51;1716634;83;20993;-79
2022/02/12 04:12:54;;;;;;;2.80;2.20;;;;;;;-0.23;73.68;96823.72;1716468;83;21443;-79
2022/02/12 04:15:25;;;;;;;3.53;2.47;;;;;;;-0.24;73.35;96815.44;1715930;83;21021;-79
2022/02/12 04:17:52;;;;;;;6.30;3.00;;;;;;;-0.27;73.61;96815.73;1716446;83;20993;-79
2022/02/12 04:20:22;;;;;;;3.07;2.00;;;;;;;-0.27;74.09;96823.52;1716514;83;21494;-79
2022/02/12 04:22:50;;;;;;;3.50;1.63;;;;;;;-0.30;74.13;96816.91;1716406;83;21053;-79
2022/02/12 04:25:20;;;;;;;2.10;1.90;;;;;;;-0.39;73.91;96812.20;1716689;83;21009;-79
2022/02/12 04:27:47;;;;;;;4.57;2.40;;;;;;;-0.41;73.91;96823.32;1716477;83;21048;-79
2022/02/12 04:30:15;;;;;;;3.67;2.40;;;;;;;-0.41;74.13;96816.84;1716277;84;21550;-79
2022/02/12 04:32:43;;;;;;;3.00;2.27;;;;;;;-0.44;74.48;96826.67;1716326;84;21005;-79
2022/02/12 04:35:16;;;;;;;3.23;2.03;;;;;;;-0.49;74.32;96823.88;1716252;83;21025;-79
2022/02/12 04:37:41;;;;;;;2.60;1.80;;;;;;;-0.55;74.06;96826.20;1715702;84;21033;-79
2022/02/12 04:40:09;;;;;;;2.50;1.87;;;;;;;-0.55;74.15;96841.77;1716397;83;21025;-78
2022/02/12 04:42:36;;;;;;;2.23;1.53;;;;;;;-0.59;74.51;96842.85;1716286;83;21565;-79
2022/02/12 04:45:05;;;;;;;3.30;1.90;;;;;;;-0.66;74.70;96848.16;1716569;83;21032;-78
2022/02/12 04:47:32;;;;;;;3.63;2.10;;;;;;;-0.73;74.29;96848.70;1716147;84;21475;-79
2022/02/12 04:49:58;;;;;;;3.70;1.93;;;;;;;-0.64;73.70;96857.31;1716056;83;21029;-79
2022/02/12 04:52:26;;;;;;;2.97;1.90;;;;;;;-0.63;73.37;96853.51;1716490;83;21009;-79
2022/02/12 04:54:52;;;;;;;2.93;2.10;;;;;;;-0.60;73.58;96859.23;1716371;83;21084;-80
2022/02/12 04:57:19;;;;;;;1.90;1.30;;;;;;;-0.62;72.96;96867.34;1716198;84;21518;-80
2022/02/12 04:59:45;;;;;;;2.50;1.70;;;;;;;-0.63;72.53;96866.84;1716661;84;21013;-80
2022/02/12 05:02:12;;;;;;;4.73;1.30;;;;;;;-0.64;72.16;96864.67;1716070;83;21037;-80
2022/02/12 05:04:39;;;;;;;2.60;1.80;;;;;;;-0.63;71.84;96869.06;1716277;83;20997;-80
2022/02/12 05:07:06;;;;;;;3.23;2.10;;;;;;;-0.61;71.96;96867.39;1716457;83;21060;-80
2022/02/12 05:09:35;;;;;;;1.70;1.47;;;;;;;-0.66;71.95;96876.67;1718604;83;21491;-79
2022/02/12 05:12:04;;;;;;;2.47;1.07;;;;;;;-0.71;72.03;96873.87;1721897;83;21045;-79
2022/02/12 05:14:32;;;;;;;2.57;1.77;;;;;;;-0.77;71.70;96883.09;1720610;83;21104;-79
2022/02/12 05:17:03;;;;;;;3.17;1.67;;;;;;;-0.77;71.81;96885.27;1721808;82;20997;-79
2022/02/12 05:19:30;;;;;;;4.10;1.63;;;;;;;-0.75;71.52;96883.63;1721358;83;20997;-79
2022/02/12 05:21:57;;;;;;;4.40;1.70;;;;;;;-0.77;71.34;96881.80;1721911;83;21331;-79
2022/02/12 05:24:23;;;;;;;5.77;1.83;;;;;;;-0.79;71.55;96884.72;1721490;83;21030;-79
2022/02/12 05:26:50;;;;;;;2.93;1.93;;;;;;;-0.82;71.66;96884.58;1722001;83;21036;-79
2022/02/12 05:29:17;;;;;;;6.10;2.10;;;;;;;-0.81;72.12;96883.75;1721730;83;21072;-80
2022/02/12 05:31:43;;;;;;;3.73;1.93;;;;;;;-0.81;72.05;96892.41;1721335;83;21140;-80
2022/02/12 05:34:10;;;;;;;3.30;2.10;;;;;;;-0.85;71.61;96894.81;1721810;82;21016;-79
2022/02/12 05:36:37;;;;;;;5.57;2.60;;;;;;;-0.84;71.64;96895.28;1721707;83;21044;-79
2022/02/12 05:39:04;;;;;;;4.17;2.07;;;;;;;-0.82;71.55;96904.02;1721201;82;21097;-79
2022/02/12 05:41:32;;;;;;;4.23;2.47;;;;;;;-0.83;71.54;96908.70;1721789;83;21021;-79
2022/02/12 05:43:58;;;;;;;3.83;2.37;;;;;;;-0.84;71.71;96911.70;1721476;83;21045;-79
2022/02/12 05:46:25;;;;;;;4.47;2.57;;;;;;;-0.85;71.74;96912.54;1721415;83;21020;-80
2022/02/12 05:48:51;;;;;;;4.50;2.77;;;;;;;-0.94;71.72;96922.05;1721500;83;21028;-79
2022/02/12 05:51:18;;;;;;;5.50;2.60;;;;;;;-0.95;71.95;96926.77;1721469;83;21068;-79
2022/02/12 05:53:45;;;;;;;4.83;2.57;;;;;;;-0.94;72.29;96929.81;1721730;83;20997;-79
2022/02/12 05:56:12;;;;;;;4.90;2.97;;;;;;;-0.96;71.96;96932.77;1721428;83;21554;-79
2022/02/12 05:58:38;;;;;;;6.40;2.97;;;;;;;-0.97;72.53;96931.39;1722046;83;21048;-79
2022/02/12 06:01:05;;;;;;;6.90;2.70;;;;;;;-1.02;72.51;96931.17;1721548;83;21013;-79
2022/02/12 06:03:32;;;;;;;4.50;2.90;;;;;;;-1.06;73.37;96938.72;1721726;83;21096;-79
2022/02/12 06:05:58;;;;;;;7.67;3.53;;;;;;;-1.07;74.38;96940.42;1721542;83;20993;-80
2022/02/12 06:08:25;;;;;;;3.57;2.57;;;;;;;-1.12;74.38;96937.61;1721516;83;21005;-79
2022/02/12 06:10:52;;;;;;;6.03;3.13;;;;;;;-1.15;75.44;96943.95;1716937;82;21028;-79
2022/02/12 06:13:19;;;;;;;9.60;4.17;;;;;;;-1.16;75.20;96954.22;1716464;84;20973;-78
2022/02/12 06:15:46;;;;;;;6.63;3.10;;;;;;;-1.17;74.66;96948.57;1716206;84;21005;-79
2022/02/12 06:18:13;;;;;;;5.83;2.87;;;;;;;-1.11;74.80;96949.77;1716360;83;21519;-79
2022/02/12 06:20:40;;;;;;;7.33;2.10;;;;;;;-1.15;75.02;96960.78;1716313;83;21033;-79
2022/02/12 06:23:09;;;;;;;6.53;3.40;;;;;;;-1.22;75.24;96953.94;1716269;84;21383;-79
2022/02/12 06:25:35;;;;;;;7.10;3.60;;;;;;;-1.28;75.32;96954.95;1716428;83;21064;-79
2022/02/12 06:28:02;;;;;;;15.40;8.37;;;;;;;-1.23;75.66;96963.41;1716305;84;21013;-79
2022/02/12 06:30:29;;;;;;;12.27;6.40;;;;;;;-1.18;75.61;96964.94;1716337;83;21051;-79
2022/02/12 06:32:59;;;;;;;5.93;2.83;;;;;;;-1.19;76.45;96974.38;1716194;83;21490;-79
2022/02/12 06:35:23;;;;;;;15.97;8.77;;;;;;;-1.14;76.19;96981.97;1716327;84;21554;-79
2022/02/12 06:37:50;;;;;;;21.60;11.57;;;;;;;-1.10;76.10;96980.02;1716273;83;21141;-79
2022/02/12 06:40:17;;;;;;;14.70;8.87;;;;;;;-1.04;75.68;96985.02;1716554;83;21494;-79
2022/02/12 06:42:44;;;;;;;16.10;8.57;;;;;;;-0.93;75.77;96991.62;1716207;83;21073;-80
2022/02/12 06:45:10;;;;;;;15.30;7.53;;;;;;;-0.83;75.75;96997.72;1716546;83;21028;-79
2022/02/12 06:47:39;;;;;;;10.47;5.97;;;;;;;-0.80;75.47;97003.45;1716120;83;21100;-79
2022/02/12 06:50:07;;;;;;;11.20;6.07;;;;;;;-0.83;75.34;97000.69;1716357;84;21025;-79
2022/02/12 06:52:34;;;;;;;7.07;3.70;;;;;;;-0.82;75.08;97013.73;1716554;84;21029;-80
2022/02/12 06:55:01;;;;;;;13.70;8.60;;;;;;;-0.77;75.74;97014.84;1716657;83;21009;-80
2022/02/12 06:57:27;;;;;;;8.50;4.33;;;;;;;-0.82;75.56;97017.62;1716488;83;21040;-79
2022/02/12 06:59:55;;;;;;;10.60;4.70;;;;;;;-0.72;75.94;97017.24;1716749;84;21002;-80
2022/02/12 07:02:21;;;;;;;20.97;12.70;;;;;;;-0.66;76.17;97020.52;1716410;83;20973;-80
2022/02/12 07:04:48;;;;;;;20.13;12.43;;;;;;;-0.54;75.91;97024.12;1716512;83;21025;-80
2022/02/12 07:07:14;;;;;;;17.80;9.80;;;;;;;-0.43;75.59;97026.79;1716621;83;21049;-79
2022/02/12 07:09:41;;;;;;;13.80;8.17;;;;;;;-0.31;75.58;97032.97;1717584;83;21013;-80
2022/02/12 07:12:09;;;;;;;11.73;6.87;;;;;;;-0.16;75.38;97039.27;1722106;83;21546;-79
2022/02/12 07:14:36;;;;;;;8.07;5.50;;;;;;;0.06;74.69;97029.47;1721811;83;21068;-80
2022/02/12 07:17:04;;;;;;;10.07;5.27;;;;;;;0.23;74.45;97040.58;1721947;83;21041;-79
2022/02/12 07:19:32;;;;;;;8.87;4.93;;;;;;;0.36;73.37;97027.34;1721906;82;21534;-79
2022/02/12 07:21:59;;;;;;;6.57;4.50;;;;;;;0.42;71.76;97030.19;1721853;83;21029;-79
2022/02/12 07:24:25;;;;;;;6.77;3.97;;;;;;;0.52;71.57;97031.06;1721784;83;21052;-79
2022/02/12 07:26:52;;;;;;;9.40;4.17;;;;;;;0.61;71.37;97031.47;1721907;83;21014;-79
2022/02/12 07:29:19;;;;;;;7.27;4.33;;;;;;;0.74;70.95;97033.30;1721903;83;21061;-79
2022/02/12 07:31:45;;;;;;;10.93;6.10;;;;;;;0.75;69.92;97035.94;1721522;83;21005;-80
2022/02/12 07:34:16;;;;;;;12.77;9.17;;;;;;;0.78;70.37;97041.30;1721675;83;21020;-79
2022/02/12 07:36:43;;;;;;;13.80;8.17;;;;;;;0.85;68.23;97038.09;1721893;83;21036;-79
2022/02/12 07:39:10;;;;;;;10.63;6.47;;;;;;;0.93;67.81;97044.03;1721801;82;20985;-79
2022/02/12 07:41:36;;;;;;;7.77;4.67;;;;;;;0.99;66.81;97036.52;1721678;83;21491;-79
2022/02/12 07:44:04;;;;;;;5.83;3.63;;;;;;;1.08;67.93;97040.39;1721893;83;21024;-80
2022/02/12 07:46:31;;;;;;;7.47;3.73;;;;;;;1.18;67.53;97036.42;1721690;82;21024;-79
2022/02/12 07:48:57;;;;;;;9.60;4.27;;;;;;;1.28;65.43;97043.77;1721467;83;21016;-79
2022/02/12 07:51:24;;;;;;;7.73;4.47;;;;;;;1.29;64.80;97039.06;1721893;83;21527;-80
2022/02/12 07:53:50;;;;;;;8.90;4.20;;;;;;;1.32;64.85;97041.31;1721697;83;21021;-80
2022/02/12 07:56:17;;;;;;;7.50;4.20;;;;;;;1.39;65.59;97045.53;1721555;83;21112;-80
2022/02/12 07:58:43;;;;;;;8.10;3.73;;;;;;;1.45;64.11;97043.58;1721779;82;21052;-80
2022/02/12 08:01:10;;;;;;;8.37;4.13;;;;;;;1.55;65.37;97053.52;1721803;83;20969;-80
2022/02/12 08:03:36;;;;;;;7.00;4.23;;;;;;;1.69;65.51;97055.38;1721739;83;21021;-80
2022/02/12 08:06:03;;;;;;;8.87;4.57;;;;;;;1.78;64.55;97060.03;1721632;83;21120;-80
2022/02/12 08:08:29;;;;;;;5.13;2.93;;;;;;;1.83;62.80;97058.50;1721662;83;21004;-80
2022/02/12 08:13:41;;;;;;;7.30;4.73;;;;;;;1.86;62.41;97068.59;1714535;84;21018;-80
2022/02/12 08:16:07;;;;;;;5.97;3.73;;;;;;;1.91;62.91;97065.76;1714904;84;21524;-80
2022/02/12 08:18:34;;;;;;;4.97;3.80;;;;;;;2.00;62.21;97073.05;1714802;84;20979;-80
2022/02/12 08:21:00;;;;;;;4.73;3.37;;;;;;;2.01;61.65;97071.33;1714770;83;21062;-80
2022/02/12 08:23:27;;;;;;;7.57;3.90;;;;;;;2.08;61.74;97069.44;1714630;84;21021;-80
2022/02/12 08:25:53;;;;;;;5.37;3.07;;;;;;;2.20;61.51;97072.93;1715147;84;20990;-80
2022/02/12 08:28:20;;;;;;;5.63;3.20;;;;;;;2.28;60.27;97069.77;1714466;84;21137;-80
2022/02/12 08:30:46;;;;;;;4.67;3.30;;;;;;;2.36;61.43;97078.73;1714827;83;21054;-80
2022/02/12 08:33:13;;;;;;;6.00;3.53;;;;;;;2.43;60.91;97082.89;1714612;84;21055;-80
2022/02/12 08:35:40;;;;;;;4.93;3.30;;;;;;;2.47;60.62;97088.28;1714786;84;21021;-79
2022/02/12 08:38:07;;;;;;;6.17;3.10;;;;;;;2.63;61.68;97088.83;1714725;84;21564;-81
2022/02/12 08:40:34;;;;;;;6.57;3.77;;;;;;;2.72;58.76;97089.14;1715188;83;21001;-80
2022/02/12 08:43:00;;;;;;;6.67;3.80;;;;;;;2.76;58.89;97097.55;1714526;84;21110;-79
2022/02/12 08:45:27;;;;;;;7.57;4.20;;;;;;;2.81;58.87;97098.18;1714962;84;20990;-79
2022/02/12 08:47:53;;;;;;;4.27;2.17;;;;;;;2.78;57.15;97102.41;1714865;84;21073;-78
2022/02/12 08:50:20;;;;;;;3.93;2.53;;;;;;;2.82;57.28;97101.67;1715007;83;21011;-78
2022/02/12 08:52:47;;;;;;;6.83;3.43;;;;;;;2.86;57.61;97107.89;1714987;84;21003;-78
2022/02/12 08:55:14;;;;;;;5.70;3.10;;;;;;;2.95;58.33;97104.32;1714714;84;21018;-78
2022/02/12 08:57:41;;;;;;;4.97;2.70;;;;;;;3.04;58.05;97112.44;1714830;84;21058;-78
2022/02/12 09:00:11;;;;;;;5.10;2.70;;;;;;;3.11;56.66;97113.55;1714789;83;21058;-79
2022/02/12 09:02:38;;;;;;;4.00;2.77;;;;;;;3.07;55.22;97114.27;1714633;83;21026;-78
2022/02/12 09:05:06;;;;;;;8.50;3.40;;;;;;;3.18;56.29;97119.03;1714880;84;21062;-79
2022/02/12 09:07:32;;;;;;;3.67;2.10;;;;;;;3.26;56.41;97120.59;1714782;84;21081;-78
2022/02/12 09:10:00;;;;;;;5.10;3.20;;;;;;;3.36;57.18;97130.94;1714540;84;21098;-78
2022/02/12 09:12:28;;;;;;;5.57;2.70;;;;;;;3.36;56.34;97134.84;1716165;83;21341;-78
2022/02/12 09:14:55;;;;;;;4.47;1.93;;;;;;;3.35;54.71;97131.36;1716332;84;21028;-79
2022/02/12 09:17:22;;;;;;;5.33;2.10;;;;;;;3.52;55.56;97135.81;1716294;84;20981;-79
2022/02/12 09:19:48;;;;;;;4.80;2.27;;;;;;;3.62;54.47;97137.02;1716426;84;21024;-78
2022/02/12 09:22:16;;;;;;;4.03;1.70;;;;;;;3.66;55.85;97138.91;1716301;83;21010;-78
2022/02/12 09:24:43;;;;;;;3.70;1.90;;;;;;;3.55;54.42;97146.78;1716236;84;21022;-78
2022/02/12 09:27:10;;;;;;;4.63;2.33;;;;;;;3.47;54.84;97148.70;1716416;84;20993;-77
2022/02/12 09:29:36;;;;;;;4.40;1.80;;;;;;;3.33;54.22;97147.38;1716463;83;21017;-78
2022/02/12 09:32:04;;;;;;;3.73;2.40;;;;;;;3.35;52.69;97144.80;1716555;83;20989;-78
2022/02/12 09:34:30;;;;;;;4.77;1.97;;;;;;;3.43;52.66;97143.36;1716247;83;21068;-77
2022/02/12 09:36:56;;;;;;;4.07;2.53;;;;;;;3.58;52.55;97150.40;1716298;83;21050;-78
2022/02/12 09:39:23;;;;;;;5.20;2.67;;;;;;;3.78;52.89;97151.06;1716120;84;21033;-77
2022/02/12 09:41:50;;;;;;;5.50;2.80;;;;;;;3.86;50.75;97144.78;1716540;83;21564;-77
2022/02/12 09:44:17;;;;;;;7.00;4.23;;;;;;;3.97;51.43;97142.08;1686372;84;21056;-77
2022/02/12 09:47:01;;;;;;;4.67;2.40;;;;;;;4.12;52.10;97149.08;1716396;84;21459;-77
2022/02/12 09:49:29;;;;;;;5.00;2.03;;;;;;;4.01;51.29;97141.77;1715986;83;21531;-77
2022/02/12 09:51:57;;;;;;;4.33;2.00;;;;;;;3.88;50.47;97145.30;1716220;84;20997;-76
2022/02/12 09:54:23;;;;;;;6.07;3.20;;;;;;;3.73;51.81;97149.11;1716442;83;21060;-77
2022/02/12 09:56:50;;;;;;;6.83;1.87;;;;;;;3.81;52.30;97145.05;1716446;83;21060;-77
2022/02/12 09:59:17;;;;;;;4.20;2.47;;;;;;;3.95;50.23;97146.36;1686332;84;21027;-76
2022/02/12 10:01:43;;;;;;;3.70;2.10;;;;;;;3.97;49.68;97147.72;1716499;83;21470;-77
2022/02/12 10:04:21;;;;;;;3.87;1.80;;;;;;;4.08;49.93;97151.55;1716371;83;20981;-77
2022/02/12 10:06:48;;;;;;;2.50;1.67;;;;;;;3.80;48.87;97157.19;1716051;83;21072;-76
2022/02/12 10:09:16;;;;;;;4.87;2.30;;;;;;;3.62;51.33;97153.55;1716447;83;21001;-76
2022/02/12 10:11:50;;;;;;;3.83;2.20;;;;;;;3.75;50.23;97158.77;1718260;83;21045;-76
2022/02/12 10:14:19;;;;;;;3.73;2.27;;;;;;;3.76;49.99;97151.42;1719339;83;21124;-77
2022/02/12 10:17:02;;;;;;;4.00;1.70;;;;;;;3.95;49.60;97162.02;1721818;83;21001;-77
2022/02/12 10:19:34;;;;;;;4.25;1.75;;;;;;;4.24;51.55;97159.04;1721591;83;21032;-77
2022/02/12 10:22:15;;;;;;;5.90;2.00;;;;;;;4.52;49.30;97158.58;1721714;82;21032;-76
2022/02/12 10:24:52;;;;;;;3.77;2.47;;;;;;;4.85;49.41;97149.95;1721725;82;21032;-77
2022/02/12 10:27:26;;;;;;;7.90;3.50;;;;;;;5.14;50.11;97155.98;1721300;83;21037;-76
2022/02/12 10:29:55;;;;;;;6.37;3.80;;;;;;;5.05;47.81;97154.00;1720333;83;21033;-77
2022/02/12 10:32:24;;;;;;;6.83;4.33;;;;;;;4.77;47.99;97151.03;1721719;83;21033;-76
2022/02/12 10:34:53;;;;;;;4.47;2.27;;;;;;;4.62;48.24;97150.59;1721590;83;21092;-76
2022/02/12 10:37:23;;;;;;;4.33;2.57;;;;;;;4.30;48.90;97156.60;1721688;83;21001;-76
2022/02/12 10:39:55;;;;;;;9.03;4.07;;;;;;;4.08;49.45;97156.77;1721732;83;21036;-76
2022/02/12 10:42:23;;;;;;;4.53;2.50;;;;;;;4.00;50.11;97160.45;1721746;82;21040;-77
2022/02/12 10:44:51;;;;;;;5.73;4.07;;;;;;;3.88;49.98;97160.96;1721714;83;20985;-76
2022/02/12 10:47:18;;;;;;;5.00;3.33;;;;;;;4.20;50.01;97153.23;1721238;83;21347;-77
2022/02/12 10:49:47;;;;;;;3.00;2.50;;;;;;;4.91;51.23;97149.71;1721771;82;21084;-76
2022/02/12 10:52:15;;;;;;;6.47;2.40;;;;;;;5.38;47.39;97141.38;1721848;83;20997;-76
2022/02/12 10:54:51;;;;;;;5.53;2.77;;;;;;;5.99;47.28;97132.46;1721331;82;21025;-76
2022/02/12 10:57:28;;;;;;;8.77;4.90;;;;;;;5.81;48.15;97135.48;1721857;83;21036;-76
2022/02/12 10:59:49;;;;;;;8.87;3.97;;;;;;;5.47;47.26;97133.77;1720489;83;21088;-76
2022/02/12 11:02:18;;;;;;;6.97;4.07;;;;;;;5.15;48.59;97141.64;1721548;83;21518;-77
2022/02/12 11:04:49;;;;;;;7.23;5.03;;;;;;;4.66;50.21;97147.20;1721684;82;21063;-77
2022/02/12 11:07:18;;;;;;;5.80;4.37;;;;;;;4.45;51.27;97154.88;1721817;83;21048;-77
2022/02/12 11:09:46;;;;;;;7.67;5.30;;;;;;;4.27;52.49;97166.97;1721552;83;21056;-77
2022/02/12 11:12:15;;;;;;;9.40;5.83;;;;;;;4.22;54.28;97172.47;1721596;83;21032;-77
2022/02/12 11:14:44;;;;;;;9.07;4.60;;;;;;;4.57;54.71;97170.05;1721689;83;21071;-79
2022/02/12 11:17:15;;;;;;;7.43;4.60;;;;;;;5.45;52.43;97155.09;1721528;83;21025;-76
2022/02/12 11:19:44;;;;;;;10.93;5.23;;;;;;;6.13;50.11;97152.45;1721604;83;21511;-76
2022/02/12 11:22:12;;;;;;;9.10;5.87;;;;;;;6.24;49.24;97148.34;1721635;82;21036;-76
2022/02/12 11:24:43;;;;;;;9.07;5.20;;;;;;;5.99;48.75;97148.61;1722020;83;21016;-76
2022/02/12 11:27:23;;;;;;;11.83;7.67;;;;;;;5.66;49.52;97156.06;1721811;83;21081;-77
2022/02/12 11:29:52;;;;;;;8.60;4.80;;;;;;;5.40;50.65;97156.27;1721734;83;21033;-77
2022/02/12 11:32:26;;;;;;;6.77;4.37;;;;;;;4.95;50.74;97162.44;1721820;82;21526;-77
2022/02/12 11:35:09;;;;;;;5.97;4.03;;;;;;;4.69;51.10;97160.39;1721927;82;21001;-77
2022/02/12 11:37:44;;;;;;;7.97;5.00;;;;;;;4.49;51.23;97158.49;1721974;82;21534;-77
2022/02/12 11:40:28;;;;;;;5.87;4.20;;;;;;;4.40;51.76;97164.31;1722003;82;21542;-78
2022/02/12 11:43:00;;;;;;;6.50;3.37;;;;;;;4.53;53.25;97164.26;1721926;83;21092;-77
2022/02/12 11:45:43;;;;;;;6.75;4.78;;;;;;;5.62;52.71;97141.14;1722002;82;21124;-76
2022/02/12 11:48:31;;;;;;;5.62;3.87;;;;;;;6.74;49.45;97142.88;1721925;83;21020;-76
2022/02/12 11:51:12;;;;;;;5.87;3.90;;;;;;;7.77;44.49;97134.79;1721692;83;21008;-76